Татаренер

Карта отелей и гостиниц, располагающихся рядом с аэропортом Татаренер :

Татаренер Марий Эл 57° 5' 26.3292" N, 48° 50' 20.0688" E
Код аэродрома ИКАО
HHN3
Код аэродрома RU
ХХН3
Координаты
N57.09065° E048.83891°
Превышение над уровнем моря
125
Основная полоса
12/30
Курс магнитный
121,2/301,2
Длина основной ВПП
18
Ширина основной ВПП
18
Покрытие основной ВПП
Твёрдое
Освещение ВПП
Нет
Тип: 
Вертодром
Класс аэродрома: 
Принадлежность: 
ГА
Статус: 
Действующий
Сайт: 
E-mail аэродрома: 
Страна: 
Россия
Регион: 
Марий Эл
Город: 
Дополнительная информация: 

Найти трансфер

С помощью этой формы Вы можете найти трансфер из аэропорта Татаренер в город, аэропорт или вокзал:

Карта места

Javascript is required to view this map.

Погода в аэропортах:

Авиационная погода в Краснодаре

Регион: 
Погода METAR: 
URKK 170530Z 03009MPS 0300 R05R/0350N +SHSN BKN003 OVC020CB M05/M06 Q1004 R05R/690335 NOSIG RMK QBB090 OBST OBSC QFE750
Время наблюдения
2021-01-17T05:30:00Z
Температура C
-5.0
Точка росы
-6.0
Направление ветра
30
Скорость ветра (узлы)
17
Метео видимость
0.19
Явления погоды
+SHSN
Условия полета
LIFR
Аэропорт подробнее: 

Авиационная погода в Киеве

Регион: 
Погода METAR: 
UKKK 170530Z 24002MPS 4800 BR FEW011 M21/M24 Q1014 R26/820350 NOSIG
Время наблюдения
2021-01-17T05:30:00Z
Температура C
-21.0
Точка росы
-24.0
Направление ветра
240
Скорость ветра (узлы)
4
Метео видимость
2.98
Явления погоды
BR
Условия полета
IFR
Аэропорт подробнее: 

Авиационная погода в Ульяновске

Регион: 
Погода METAR: 
UWLW 170600Z 26007MPS 8000 DRSN NSC M15/M18 Q1005 R20/820650 NOSIG RMK QFE748
Время наблюдения
2021-01-17T06:00:00Z
Температура C
-15.0
Точка росы
-18.0
Направление ветра
260
Скорость ветра (узлы)
14
Метео видимость
4.97
Явления погоды
DRSN
Условия полета
MVFR
Аэропорт подробнее: 

Авиационная погода в Ургенче

Регион: 
Погода METAR: 
UTNU 170530Z 07010KT 4900 BR NSC M01/M03 Q1016 R31/CLRD70 NOSIG
Время наблюдения
2021-01-17T05:30:00Z
Температура C
-1.0
Точка росы
-3.0
Направление ветра
70
Скорость ветра (узлы)
10
Метео видимость
3.04
Явления погоды
BR
Условия полета
MVFR